TimeCDT,TemperatureF,Dew PointF,Humidity,Sea Level PressureIn,VisibilityMPH,Wind Direction,Wind SpeedMPH,Gust SpeedMPH,PrecipitationIn,Events,Conditions,WindDirDegrees,DateUTC
12:15 AM,56.8,50.9,80,30.12,10.0,NE,5.8,-,N/A,,Clear,40,2013-09-08 05:15:00
12:35 AM,55.9,50.5,82,30.12,10.0,NE,3.5,-,N/A,,Clear,50,2013-09-08 05:35:00
12:55 AM,55.6,50.2,82,30.13,10.0,NE,3.5,-,N/A,,Clear,50,2013-09-08 05:55:00
1:15 AM,54.7,50.0,84,30.13,10.0,Calm,Calm,-,N/A,,Clear,0,2013-09-08 06:15:00
1:35 AM,53.8,49.5,85,30.13,10.0,Calm,Calm,-,N/A,,Clear,0,2013-09-08 06:35:00
1:55 AM,52.9,49.1,87,30.14,10.0,Calm,Calm,-,N/A,,Clear,0,2013-09-08 06:55:00
2:15 AM,52.3,49.1,89,30.13,10.0,Calm,Calm,-,N/A,,Clear,0,2013-09-08 07:15:00
2:35 AM,52.2,49.1,89,30.14,10.0,ENE,3.5,-,N/A,,Clear,60,2013-09-08 07:35:00
2:55 AM,52.7,48.7,86,30.14,10.0,Calm,Calm,-,N/A,,Clear,0,2013-09-08 07:55:00
3:15 AM,52.5,48.2,85,30.14,10.0,ENE,4.6,-,N/A,,Clear,70,2013-09-08 08:15:00
3:35 AM,52.0,48.2,87,30.14,10.0,Calm,Calm,-,N/A,,Clear,0,2013-09-08 08:35:00
3:55 AM,50.5,47.1,88,30.15,10.0,Calm,Calm,-,N/A,,Clear,0,2013-09-08 08:55:00
4:15 AM,48.7,46.8,93,30.14,10.0,Calm,Calm,-,N/A,,Clear,0,2013-09-08 09:15:00
4:35 AM,49.1,47.1,93,30.15,10.0,Calm,Calm,-,N/A,,Clear,0,2013-09-08 09:35:00
4:55 AM,49.3,47.3,93,30.15,10.0,Calm,Calm,-,N/A,,Clear,0,2013-09-08 09:55:00
5:15 AM,49.1,47.1,93,30.15,10.0,Calm,Calm,-,N/A,,Clear,0,2013-09-08 10:15:00
5:35 AM,49.1,46.9,92,30.15,10.0,Calm,Calm,-,N/A,,Clear,0,2013-09-08 10:35:00
5:55 AM,49.1,46.8,92,30.15,10.0,Calm,Calm,-,N/A,,Clear,0,2013-09-08 10:55:00
6:15 AM,47.3,44.8,91,30.16,7.0,Calm,Calm,-,N/A,,Clear,0,2013-09-08 11:15:00
6:35 AM,46.4,45.1,95,30.16,7.0,Calm,Calm,-,N/A,,Clear,0,2013-09-08 11:35:00
6:55 AM,47.5,46.4,96,30.16,10.0,Calm,Calm,-,N/A,,Clear,0,2013-09-08 11:55:00
7:15 AM,48.9,47.7,95,30.15,10.0,ENE,3.5,-,N/A,,Clear,70,2013-09-08 12:15:00
7:35 AM,51.1,49.1,93,30.14,10.0,ENE,4.6,-,N/A,,Clear,70,2013-09-08 12:35:00
7:55 AM,52.7,49.6,89,30.14,10.0,ENE,3.5,-,N/A,,Clear,70,2013-09-08 12:55:00
8:15 AM,54.5,50.0,85,30.14,10.0,Calm,Calm,-,N/A,,Clear,0,2013-09-08 13:15:00
8:35 AM,56.5,50.4,80,30.15,10.0,ENE,3.5,-,N/A,,Clear,70,2013-09-08 13:35:00
8:55 AM,58.5,50.0,73,30.15,10.0,ENE,4.6,-,N/A,,Clear,70,2013-09-08 13:55:00
9:15 AM,60.1,50.2,70,30.16,10.0,East,4.6,-,N/A,,Clear,80,2013-09-08 14:15:00
9:35 AM,61.9,49.3,63,30.16,10.0,East,5.8,-,N/A,,Clear,80,2013-09-08 14:35:00
9:55 AM,62.2,47.7,59,30.17,10.0,East,10.4,-,N/A,,Clear,90,2013-09-08 14:55:00
10:15 AM,62.8,47.8,58,30.17,10.0,East,6.9,-,N/A,,Clear,90,2013-09-08 15:15:00
10:35 AM,63.9,47.1,54,30.15,10.0,ESE,9.2,-,N/A,,Clear,110,2013-09-08 15:35:00
10:55 AM,64.6,46.9,53,30.15,10.0,East,8.1,16.1,N/A,,Clear,100,2013-09-08 15:55:00
11:15 AM,65.3,48.2,54,30.15,10.0,ESE,6.9,-,N/A,,Clear,120,2013-09-08 16:15:00
11:35 AM,66.6,48.0,51,30.15,10.0,SE,4.6,-,N/A,,Clear,140,2013-09-08 16:35:00
11:55 AM,67.3,48.4,51,30.15,10.0,SE,9.2,-,N/A,,Clear,130,2013-09-08 16:55:00
12:15 PM,67.3,46.6,47,30.14,10.0,SE,6.9,-,N/A,,Clear,130,2013-09-08 17:15:00
12:35 PM,68.0,47.1,47,30.13,10.0,East,8.1,-,N/A,,Clear,100,2013-09-08 17:35:00
12:55 PM,68.5,47.3,47,30.11,10.0,ESE,10.4,16.1,N/A,,Clear,120,2013-09-08 17:55:00
1:15 PM,70.0,48.6,46,30.10,10.0,ESE,5.8,-,N/A,,Clear,120,2013-09-08 18:15:00
1:35 PM,69.3,47.7,46,30.10,10.0,ESE,5.8,-,N/A,,Clear,110,2013-09-08 18:35:00
1:55 PM,68.2,48.4,49,30.10,10.0,SE,5.8,-,N/A,,Clear,130,2013-09-08 18:55:00
2:15 PM,68.0,49.1,51,30.09,10.0,SE,4.6,-,N/A,,Clear,130,2013-09-08 19:15:00
2:35 PM,67.3,49.8,53,30.08,10.0,ESE,5.8,-,N/A,,Clear,120,2013-09-08 19:35:00
2:55 PM,68.0,50.5,54,30.07,10.0,East,6.9,-,N/A,,Clear,90,2013-09-08 19:55:00
3:15 PM,67.3,50.2,54,30.07,10.0,ESE,3.5,-,N/A,,Clear,120,2013-09-08 20:15:00
3:35 PM,67.1,50.2,55,30.07,10.0,SSE,4.6,-,N/A,,Mostly Cloudy,150,2013-09-08 20:35:00
3:55 PM,68.0,51.3,55,30.06,10.0,ESE,4.6,-,N/A,,Mostly Cloudy,120,2013-09-08 20:55:00
4:15 PM,67.8,51.3,55,30.05,10.0,ESE,5.8,-,N/A,,Mostly Cloudy,110,2013-09-08 21:15:00
4:35 PM,67.1,52.2,59,30.04,10.0,ESE,5.8,-,N/A,,Scattered Clouds,120,2013-09-08 21:35:00
4:55 PM,66.4,52.7,61,30.03,10.0,ESE,3.5,-,N/A,,Scattered Clouds,110,2013-09-08 21:55:00
5:15 PM,65.8,53.4,64,30.03,10.0,Calm,Calm,-,N/A,,Scattered Clouds,0,2013-09-08 22:15:00
5:35 PM,65.5,52.7,63,30.03,10.0,Calm,Calm,-,N/A,,Mostly Cloudy,0,2013-09-08 22:35:00
5:55 PM,64.8,52.2,64,30.02,10.0,SE,3.5,-,N/A,,Overcast,140,2013-09-08 22:55:00
6:15 PM,63.9,51.6,64,30.02,10.0,SE,3.5,-,N/A,,Overcast,130,2013-09-08 23:15:00
6:35 PM,63.0,52.0,67,30.02,10.0,Calm,Calm,-,N/A,,Overcast,0,2013-09-08 23:35:00
6:55 PM,62.2,52.3,70,30.02,10.0,Calm,Calm,-,N/A,,Light Drizzle,0,2013-09-08 23:55:00
7:15 PM,61.7,51.8,70,30.02,10.0,SE,3.5,-,N/A,,Overcast,130,2013-09-09 00:15:00
7:35 PM,60.6,52.3,74,30.02,10.0,Calm,Calm,-,N/A,,Drizzle,0,2013-09-09 00:35:00
7:55 PM,60.3,51.8,74,30.02,10.0,ESE,3.5,-,N/A,,Overcast,110,2013-09-09 00:55:00
8:15 PM,60.3,51.4,73,30.02,10.0,ESE,3.5,-,N/A,,Light Drizzle,120,2013-09-09 01:15:00
8:35 PM,59.9,51.1,73,30.02,10.0,SE,3.5,-,N/A,,Light Drizzle,140,2013-09-09 01:35:00
8:55 PM,59.7,51.1,73,30.02,10.0,SE,3.5,-,N/A,,Overcast,130,2013-09-09 01:55:00
9:15 PM,59.5,50.5,72,30.02,10.0,SE,4.6,-,N/A,,Overcast,130,2013-09-09 02:15:00
9:35 PM,59.5,50.4,72,30.02,10.0,Calm,Calm,-,N/A,,Overcast,0,2013-09-09 02:35:00
9:55 PM,59.2,50.4,73,30.02,10.0,Calm,Calm,-,N/A,,Overcast,0,2013-09-09 02:55:00
10:15 PM,59.2,50.2,72,30.01,10.0,Calm,Calm,-,N/A,,Overcast,0,2013-09-09 03:15:00
10:35 PM,59.0,50.5,73,30.01,10.0,Calm,Calm,-,N/A,,Drizzle,0,2013-09-09 03:35:00
10:55 PM,58.6,51.3,76,30.01,10.0,Calm,Calm,-,N/A,,Overcast,0,2013-09-09 03:55:00
11:15 PM,59.0,51.3,75,30.00,10.0,SSE,3.5,-,N/A,,Overcast,160,2013-09-09 04:15:00
11:35 PM,59.2,51.8,77,30.00,10.0,SE,3.5,-,N/A,,Overcast,140,2013-09-09 04:35:00
11:55 PM,59.2,52.0,77,30.00,10.0,SE,3.5,-,N/A,,Overcast,130,2013-09-09 04:55:00